Time;durP1;ratioP1;P1;durP2;ratioP2;P2;SDS_P1;SDS_P2;PMS_P1;PMS_P2;Temp;Humidity;BMP_temperature;BMP_pressure;BME280_temperature;BME280_humidity;BME280_pressure;Samples;Min_cycle;Max_cycle;Signal;HPM_P1;HPM_P2
2024/01/11 00:02:21;;;;;;;42.67;17.05;;;;;;;;;;4972728;28;20095;-69
2024/01/11 00:04:46;;;;;;;43.72;16.55;;;;;;;;;;4970741;28;20047;-69
2024/01/11 00:07:12;;;;;;;43.05;17.20;;;;;;;;;;4971288;28;20385;-69
2024/01/11 00:09:43;;;;;;;47.20;16.75;;;;;;;;;;4964201;28;20053;-69
2024/01/11 00:12:08;;;;;;;43.80;16.05;;;;;;;;;;4966684;28;20066;-69
2024/01/11 00:14:34;;;;;;;48.33;17.30;;;;;;;;;;4968616;28;20034;-69
2024/01/11 00:17:00;;;;;;;42.05;16.33;;;;;;;;;;4969324;28;20026;-69
2024/01/11 00:19:25;;;;;;;42.45;15.70;;;;;;;;;;4963443;28;20054;-69
2024/01/11 00:21:50;;;;;;;44.55;16.58;;;;;;;;;;4963777;28;20035;-69
2024/01/11 00:24:15;;;;;;;44.63;16.50;;;;;;;;;;4969083;28;21028;-69
2024/01/11 00:26:41;;;;;;;36.60;14.85;;;;;;;;;;4970497;28;20019;-69
2024/01/11 00:29:07;;;;;;;47.47;16.52;;;;;;;;;;4967507;28;20457;-69
2024/01/11 00:31:32;;;;;;;42.60;16.17;;;;;;;;;;4963936;28;20473;-69
2024/01/11 00:33:57;;;;;;;47.15;16.35;;;;;;;;;;4963177;28;20018;-69
2024/01/11 00:36:22;;;;;;;46.15;16.27;;;;;;;;;;4964827;28;20030;-69
2024/01/11 00:38:47;;;;;;;48.08;17.35;;;;;;;;;;4964316;28;20110;-69
2024/01/11 00:41:13;;;;;;;55.25;17.80;;;;;;;;;;4974349;28;20023;-69
2024/01/11 00:43:38;;;;;;;50.92;17.63;;;;;;;;;;4967413;28;20034;-69
2024/01/11 00:46:03;;;;;;;50.92;16.33;;;;;;;;;;4966662;28;20026;-69
2024/01/11 00:48:28;;;;;;;49.00;16.77;;;;;;;;;;4966134;28;20023;-69
2024/01/11 00:50:54;;;;;;;40.00;16.27;;;;;;;;;;4967401;28;20023;-69
2024/01/11 00:53:19;;;;;;;62.53;18.15;;;;;;;;;;4971456;28;20022;-69
2024/01/11 00:55:44;;;;;;;43.22;14.52;;;;;;;;;;4972162;28;20076;-69
2024/01/11 00:58:09;;;;;;;48.50;17.20;;;;;;;;;;4970432;28;20031;-69
2024/01/11 01:00:34;;;;;;;52.42;16.77;;;;;;;;;;4963447;28;20456;-69
2024/01/11 01:02:59;;;;;;;47.97;15.15;;;;;;;;;;4963447;28;20027;-69
2024/01/11 01:05:25;;;;;;;40.95;14.50;;;;;;;;;;4966255;28;20038;-69
2024/01/11 01:07:50;;;;;;;44.83;16.60;;;;;;;;;;4967992;28;20098;-69
2024/01/11 01:10:15;;;;;;;44.95;15.52;;;;;;;;;;4973250;28;20035;-69
2024/01/11 01:12:41;;;;;;;52.28;17.83;;;;;;;;;;4961920;28;20134;-69
2024/01/11 01:15:07;;;;;;;36.83;14.98;;;;;;;;;;4967608;28;20558;-69
2024/01/11 01:17:32;;;;;;;50.15;16.05;;;;;;;;;;4964409;28;20046;-69
2024/01/11 01:19:57;;;;;;;47.38;17.23;;;;;;;;;;4964006;28;20041;-69
2024/01/11 01:22:22;;;;;;;48.55;17.05;;;;;;;;;;4973498;28;20048;-69
2024/01/11 01:24:47;;;;;;;45.05;15.70;;;;;;;;;;4969068;28;20357;-69
2024/01/11 01:27:13;;;;;;;41.78;15.98;;;;;;;;;;4967274;28;20019;-69
2024/01/11 01:29:38;;;;;;;50.90;16.98;;;;;;;;;;4965204;28;20025;-69
2024/01/11 01:32:03;;;;;;;44.25;15.07;;;;;;;;;;4962705;28;20457;-69
2024/01/11 01:34:28;;;;;;;44.83;16.95;;;;;;;;;;4967190;28;20101;-69
2024/01/11 01:36:54;;;;;;;38.60;15.35;;;;;;;;;;4971264;28;20031;-69
2024/01/11 01:39:19;;;;;;;50.90;15.80;;;;;;;;;;4967709;28;20429;-69
2024/01/11 01:41:44;;;;;;;44.17;16.08;;;;;;;;;;4965747;28;20023;-69
2024/01/11 01:44:09;;;;;;;39.67;15.50;;;;;;;;;;4970325;28;20148;-69
2024/01/11 01:46:34;;;;;;;44.75;15.23;;;;;;;;;;4963961;28;20030;-69
2024/01/11 01:49:00;;;;;;;50.60;15.80;;;;;;;;;;4960599;28;20031;-69
2024/01/11 01:51:28;;;;;;;40.80;15.82;;;;;;;;;;4969967;28;20018;-69
2024/01/11 01:53:56;;;;;;;48.75;15.88;;;;;;;;;;4961917;28;20538;-69
2024/01/11 01:56:22;;;;;;;48.00;16.02;;;;;;;;;;4966005;28;20026;-69
2024/01/11 01:58:48;;;;;;;38.83;15.95;;;;;;;;;;4967812;28;20034;-69
2024/01/11 02:01:14;;;;;;;47.50;15.13;;;;;;;;;;4971133;28;20023;-69
2024/01/11 02:03:39;;;;;;;47.42;16.63;;;;;;;;;;4959412;28;20031;-67
2024/01/11 02:06:05;;;;;;;55.72;17.67;;;;;;;;;;4965528;28;20109;-68
2024/01/11 02:08:31;;;;;;;53.50;17.80;;;;;;;;;;4968562;28;20037;-68
2024/01/11 02:10:57;;;;;;;50.20;18.08;;;;;;;;;;4970546;28;20031;-68
2024/01/11 02:13:23;;;;;;;45.53;16.77;;;;;;;;;;4963691;28;20105;-68
2024/01/11 02:15:48;;;;;;;40.30;15.63;;;;;;;;;;4961385;28;20118;-67
2024/01/11 02:18:13;;;;;;;43.80;15.82;;;;;;;;;;4967252;28;20027;-68
2024/01/11 02:20:38;;;;;;;39.05;15.13;;;;;;;;;;4965654;28;20107;-67
2024/01/11 02:23:06;;;;;;;47.17;15.15;;;;;;;;;;4967858;28;20038;-68
2024/01/11 02:25:31;;;;;;;49.53;15.38;;;;;;;;;;4960984;28;20417;-68
2024/01/11 02:27:56;;;;;;;48.45;17.75;;;;;;;;;;4965379;28;20172;-68
2024/01/11 02:30:22;;;;;;;42.92;14.02;;;;;;;;;;4969760;28;20106;-68
2024/01/11 02:32:48;;;;;;;46.25;15.07;;;;;;;;;;4964597;28;20103;-68
2024/01/11 02:35:14;;;;;;;44.20;16.95;;;;;;;;;;4966809;28;20022;-67
2024/01/11 02:37:39;;;;;;;50.15;16.50;;;;;;;;;;4962913;28;20723;-67
2024/01/11 02:40:07;;;;;;;39.55;12.32;;;;;;;;;;4966077;28;20045;-68
2024/01/11 02:42:32;;;;;;;39.30;12.88;;;;;;;;;;4961340;28;20029;-68
2024/01/11 02:44:57;;;;;;;41.53;16.23;;;;;;;;;;4964210;28;20370;-68
2024/01/11 02:47:22;;;;;;;45.47;17.98;;;;;;;;;;4963912;28;20062;-68
2024/01/11 02:49:47;;;;;;;43.45;16.42;;;;;;;;;;4964272;28;20027;-68
2024/01/11 02:52:13;;;;;;;37.72;14.77;;;;;;;;;;4968511;28;20546;-69
2024/01/11 02:54:38;;;;;;;40.17;14.50;;;;;;;;;;4965240;28;20080;-70
2024/01/11 02:57:03;;;;;;;45.20;16.20;;;;;;;;;;4968225;28;20419;-69
2024/01/11 02:59:28;;;;;;;39.97;14.60;;;;;;;;;;4963724;28;20036;-69
2024/01/11 03:01:54;;;;;;;53.47;17.13;;;;;;;;;;4966509;28;20479;-70
2024/01/11 03:04:19;;;;;;;47.60;17.48;;;;;;;;;;4971413;28;20038;-69
2024/01/11 03:06:44;;;;;;;46.38;17.42;;;;;;;;;;4967429;28;20025;-69
2024/01/11 03:09:09;;;;;;;46.72;16.50;;;;;;;;;;4967782;28;20045;-69
2024/01/11 03:11:34;;;;;;;44.15;16.13;;;;;;;;;;4971482;28;20385;-70
2024/01/11 03:14:00;;;;;;;50.13;17.00;;;;;;;;;;4964234;28;20038;-69
2024/01/11 03:16:25;;;;;;;46.83;17.20;;;;;;;;;;4970613;28;20513;-69
2024/01/11 03:18:50;;;;;;;49.67;17.00;;;;;;;;;;4966842;28;20478;-70
2024/01/11 03:21:15;;;;;;;59.13;18.45;;;;;;;;;;4970708;28;20050;-70
2024/01/11 03:23:41;;;;;;;47.58;19.10;;;;;;;;;;4970182;28;20034;-69
2024/01/11 03:26:32;;;;;;;48.03;16.88;;;;;;;;;;4972412;28;20030;-70
2024/01/11 03:28:57;;;;;;;50.53;17.52;;;;;;;;;;4965103;28;20038;-70
2024/01/11 03:31:22;;;;;;;46.85;17.00;;;;;;;;;;4971385;28;20011;-70
2024/01/11 03:33:48;;;;;;;46.17;16.40;;;;;;;;;;4969325;28;20409;-71
2024/01/11 03:36:13;;;;;;;41.50;15.65;;;;;;;;;;4973865;28;20382;-69
2024/01/11 03:38:38;;;;;;;44.88;16.38;;;;;;;;;;4951921;28;20157;-69
2024/01/11 03:41:09;;;;;;;50.38;16.92;;;;;;;;;;4964292;28;20476;-69
2024/01/11 03:43:35;;;;;;;41.03;16.98;;;;;;;;;;4967937;28;20026;-70
2024/01/11 03:46:00;;;;;;;34.20;14.50;;;;;;;;;;4973522;28;20504;-69
2024/01/11 03:48:25;;;;;;;47.20;16.23;;;;;;;;;;4971607;28;20016;-70
2024/01/11 03:50:51;;;;;;;49.50;16.77;;;;;;;;;;4967759;28;20093;-70
2024/01/11 03:53:17;;;;;;;45.45;15.23;;;;;;;;;;4970111;28;20029;-69
2024/01/11 03:55:42;;;;;;;36.20;15.15;;;;;;;;;;4969706;28;20045;-70
2024/01/11 03:58:07;;;;;;;43.75;16.88;;;;;;;;;;4971762;28;20027;-70
2024/01/11 04:00:33;;;;;;;54.17;16.42;;;;;;;;;;4971661;28;20022;-69
2024/01/11 04:02:58;;;;;;;42.92;17.02;;;;;;;;;;4968622;28;20060;-70
2024/01/11 04:05:23;;;;;;;45.60;16.08;;;;;;;;;;4965264;28;20098;-70
2024/01/11 04:07:48;;;;;;;45.22;17.08;;;;;;;;;;4965753;28;20393;-69
2024/01/11 04:10:15;;;;;;;42.38;16.00;;;;;;;;;;4971419;28;20026;-70
2024/01/11 04:12:40;;;;;;;60.15;18.30;;;;;;;;;;4970634;28;20496;-69
2024/01/11 04:15:06;;;;;;;46.55;16.20;;;;;;;;;;4968091;28;20062;-70
2024/01/11 04:17:31;;;;;;;44.75;14.60;;;;;;;;;;4968073;28;20019;-69
2024/01/11 04:19:56;;;;;;;56.97;16.10;;;;;;;;;;4968783;28;20074;-70
2024/01/11 04:22:22;;;;;;;38.20;15.10;;;;;;;;;;4971050;28;20026;-69
2024/01/11 04:24:47;;;;;;;51.22;17.38;;;;;;;;;;4970921;28;20030;-69
2024/01/11 04:27:12;;;;;;;41.00;15.10;;;;;;;;;;4974864;28;20019;-69
2024/01/11 04:29:37;;;;;;;42.65;15.50;;;;;;;;;;4973215;28;20034;-69
2024/01/11 04:32:02;;;;;;;56.03;18.25;;;;;;;;;;4969000;28;20497;-69
2024/01/11 04:34:28;;;;;;;42.60;16.30;;;;;;;;;;4969247;28;20023;-69
2024/01/11 04:36:53;;;;;;;48.53;16.70;;;;;;;;;;4966498;28;20034;-69
2024/01/11 04:39:18;;;;;;;51.45;16.75;;;;;;;;;;4968511;28;20393;-70
2024/01/11 04:41:43;;;;;;;53.97;16.73;;;;;;;;;;4970371;28;20045;-69
2024/01/11 04:44:09;;;;;;;54.22;17.42;;;;;;;;;;4974949;28;20035;-70
2024/01/11 04:46:34;;;;;;;46.55;15.82;;;;;;;;;;4965578;28;20482;-70
2024/01/11 04:49:00;;;;;;;45.65;16.15;;;;;;;;;;4966040;28;20038;-69
2024/01/11 04:51:25;;;;;;;53.72;16.30;;;;;;;;;;4968586;28;20037;-69
2024/01/11 04:53:50;;;;;;;48.45;17.15;;;;;;;;;;4965288;28;20062;-69
2024/01/11 04:56:16;;;;;;;54.85;18.35;;;;;;;;;;4968217;28;20033;-70
2024/01/11 04:58:42;;;;;;;47.38;16.65;;;;;;;;;;4967340;28;20026;-70
2024/01/11 05:01:11;;;;;;;53.80;17.77;;;;;;;;;;4967297;28;20023;-69
2024/01/11 05:03:36;;;;;;;49.88;17.10;;;;;;;;;;4968427;28;20091;-69
2024/01/11 05:06:01;;;;;;;49.70;15.70;;;;;;;;;;4970528;28;20122;-69
2024/01/11 05:08:27;;;;;;;43.90;16.27;;;;;;;;;;4968638;28;20018;-69
2024/01/11 05:10:52;;;;;;;43.35;15.90;;;;;;;;;;4951456;28;20125;-69
2024/01/11 05:13:18;;;;;;;48.65;17.40;;;;;;;;;;4967110;28;20142;-69
2024/01/11 05:15:43;;;;;;;46.22;16.27;;;;;;;;;;4966692;28;20015;-69
2024/01/11 05:18:09;;;;;;;38.17;11.77;;;;;;;;;;4966524;28;20025;-70
2024/01/11 05:20:34;;;;;;;42.90;14.30;;;;;;;;;;4972139;28;20033;-69
2024/01/11 05:23:00;;;;;;;54.50;17.40;;;;;;;;;;4969965;28;20046;-71
2024/01/11 05:25:25;;;;;;;52.90;16.85;;;;;;;;;;4965789;28;20493;-71
2024/01/11 05:27:51;;;;;;;47.95;17.02;;;;;;;;;;4965865;28;20107;-69
2024/01/11 05:30:16;;;;;;;44.83;17.00;;;;;;;;;;4969171;28;20473;-69
2024/01/11 05:32:41;;;;;;;49.22;14.98;;;;;;;;;;4967625;28;20054;-69
2024/01/11 05:35:06;;;;;;;51.40;17.08;;;;;;;;;;4965376;28;20037;-70
2024/01/11 05:37:32;;;;;;;56.70;15.75;;;;;;;;;;4969334;28;20045;-70
2024/01/11 05:39:57;;;;;;;60.65;17.17;;;;;;;;;;4971933;28;20026;-69
2024/01/11 05:42:23;;;;;;;50.00;17.35;;;;;;;;;;4963677;28;20038;-70
2024/01/11 05:44:48;;;;;;;44.58;16.35;;;;;;;;;;4967954;28;20040;-69
2024/01/11 05:47:13;;;;;;;53.30;17.60;;;;;;;;;;4973164;28;20072;-69
2024/01/11 05:49:38;;;;;;;52.55;17.30;;;;;;;;;;4970266;28;20031;-69
2024/01/11 05:52:03;;;;;;;47.65;17.48;;;;;;;;;;4971976;28;20111;-69
2024/01/11 05:54:29;;;;;;;55.45;16.73;;;;;;;;;;4967405;28;20015;-70
2024/01/11 05:56:59;;;;;;;53.17;16.50;;;;;;;;;;4966542;28;20110;-69
2024/01/11 05:59:24;;;;;;;;;;;;;;;;;;4951860;28;20029;-70
2024/01/11 06:01:49;;;;;;;42.97;15.73;;;;;;;;;;4975623;28;19914;-70
2024/01/11 06:04:14;;;;;;;40.05;15.10;;;;;;;;;;4968027;28;20410;-70
2024/01/11 06:06:40;;;;;;;50.38;18.75;;;;;;;;;;4974323;28;20030;-70
2024/01/11 06:09:05;;;;;;;41.28;14.95;;;;;;;;;;4966448;28;20030;-69
2024/01/11 06:11:30;;;;;;;45.38;17.00;;;;;;;;;;4966167;28;20494;-69
2024/01/11 06:13:55;;;;;;;55.92;17.15;;;;;;;;;;4973223;28;20027;-69
2024/01/11 06:16:21;;;;;;;48.70;17.27;;;;;;;;;;4976823;28;20037;-70
2024/01/11 06:18:46;;;;;;;44.25;15.75;;;;;;;;;;4972932;28;20035;-69
2024/01/11 06:21:11;;;;;;;44.25;15.88;;;;;;;;;;4965163;28;20019;-69
2024/01/11 06:23:36;;;;;;;54.08;16.33;;;;;;;;;;4965809;28;20110;-70
2024/01/11 06:26:01;;;;;;;47.35;16.33;;;;;;;;;;4969581;28;20075;-69
2024/01/11 06:28:27;;;;;;;48.40;17.35;;;;;;;;;;4962329;28;20421;-69
2024/01/11 06:30:53;;;;;;;64.38;17.48;;;;;;;;;;4956428;28;20088;-70
2024/01/11 06:33:20;;;;;;;55.45;17.58;;;;;;;;;;4962757;28;20026;-69
2024/01/11 06:35:45;;;;;;;56.60;17.85;;;;;;;;;;4958465;28;20031;-70
2024/01/11 06:38:10;;;;;;;49.50;17.35;;;;;;;;;;4960620;28;20034;-70
2024/01/11 06:40:35;;;;;;;46.65;17.52;;;;;;;;;;4963119;28;20401;-70
2024/01/11 06:43:01;;;;;;;47.33;15.90;;;;;;;;;;4966890;28;20034;-70
2024/01/11 06:45:26;;;;;;;46.63;19.60;;;;;;;;;;4970889;28;20057;-70
2024/01/11 06:47:51;;;;;;;50.42;16.73;;;;;;;;;;4966345;28;20015;-69
2024/01/11 06:50:16;;;;;;;57.00;16.75;;;;;;;;;;4964147;28;20147;-69
2024/01/11 06:52:41;;;;;;;45.45;16.90;;;;;;;;;;4964115;28;20034;-70
2024/01/11 06:55:07;;;;;;;57.95;16.23;;;;;;;;;;4967551;28;20027;-69
2024/01/11 06:57:32;;;;;;;38.08;14.25;;;;;;;;;;4967002;28;20031;-70
2024/01/11 06:59:57;;;;;;;45.65;14.90;;;;;;;;;;4965722;28;20062;-71
2024/01/11 07:02:22;;;;;;;49.42;17.25;;;;;;;;;;4962016;28;20534;-70
2024/01/11 07:04:48;;;;;;;55.40;17.23;;;;;;;;;;4963168;28;20027;-70
2024/01/11 07:07:13;;;;;;;62.17;18.40;;;;;;;;;;4963845;28;20032;-69
2024/01/11 07:09:39;;;;;;;56.47;17.58;;;;;;;;;;4966914;28;20512;-69
2024/01/11 07:12:05;;;;;;;60.38;20.08;;;;;;;;;;4972646;28;20019;-69
2024/01/11 07:14:30;;;;;;;64.35;21.38;;;;;;;;;;4968065;28;20152;-70
2024/01/11 07:16:55;;;;;;;70.97;21.73;;;;;;;;;;4962287;28;20113;-69
2024/01/11 07:19:20;;;;;;;41.10;12.43;;;;;;;;;;4970663;28;20018;-69
2024/01/11 07:21:45;;;;;;;59.85;19.33;;;;;;;;;;4971145;28;20023;-69
2024/01/11 07:24:10;;;;;;;48.42;18.77;;;;;;;;;;4969727;28;20109;-69
2024/01/11 07:26:36;;;;;;;68.43;19.13;;;;;;;;;;4965535;28;20021;-69
2024/01/11 07:29:01;;;;;;;55.97;19.42;;;;;;;;;;4965802;28;20374;-69
2024/01/11 07:31:26;;;;;;;52.63;19.50;;;;;;;;;;4965804;28;20023;-69
2024/01/11 07:33:51;;;;;;;53.00;18.13;;;;;;;;;;4968481;28;20203;-69
2024/01/11 07:36:17;;;;;;;38.05;15.52;;;;;;;;;;4971229;28;20039;-69
2024/01/11 07:38:42;;;;;;;53.75;17.88;;;;;;;;;;4970304;28;20026;-70
2024/01/11 07:41:07;;;;;;;55.20;17.75;;;;;;;;;;4958099;28;20042;-69
2024/01/11 07:43:35;;;;;;;46.25;17.80;;;;;;;;;;4972095;28;20030;-69
2024/01/11 07:46:00;;;;;;;47.17;16.23;;;;;;;;;;4965142;28;20493;-70
2024/01/11 07:48:25;;;;;;;54.45;16.35;;;;;;;;;;4968780;28;20030;-69
2024/01/11 07:50:51;;;;;;;40.70;14.13;;;;;;;;;;4962206;28;20019;-69
2024/01/11 07:53:16;;;;;;;47.42;17.52;;;;;;;;;;4968899;28;20517;-69
2024/01/11 07:55:42;;;;;;;45.50;17.75;;;;;;;;;;4967557;28;20128;-70
2024/01/11 07:58:07;;;;;;;47.63;17.60;;;;;;;;;;4965551;28;20047;-69
2024/01/11 08:00:33;;;;;;;47.22;15.82;;;;;;;;;;4965278;28;20042;-70
2024/01/11 08:02:58;;;;;;;47.10;16.52;;;;;;;;;;4969731;28;20023;-69
2024/01/11 08:05:23;;;;;;;40.28;13.75;;;;;;;;;;4969536;28;20351;-69
2024/01/11 08:07:48;;;;;;;64.50;19.90;;;;;;;;;;4966361;28;20450;-69
2024/01/11 08:10:14;;;;;;;53.72;15.13;;;;;;;;;;4958254;28;20031;-69
2024/01/11 08:12:39;;;;;;;45.88;17.23;;;;;;;;;;4964896;28;20023;-69
2024/01/11 08:15:04;;;;;;;45.25;16.73;;;;;;;;;;4969692;28;20153;-69
2024/01/11 08:17:29;;;;;;;49.95;16.67;;;;;;;;;;4972239;28;20132;-69
2024/01/11 08:19:56;;;;;;;49.35;19.83;;;;;;;;;;4965929;28;20019;-70
2024/01/11 08:22:21;;;;;;;78.10;20.27;;;;;;;;;;4962839;28;20031;-70
2024/01/11 08:24:47;;;;;;;40.95;15.63;;;;;;;;;;4967255;28;20027;-70
2024/01/11 08:27:13;;;;;;;4.70;3.70;;;;;;;;;;4965390;28;20019;-69
2024/01/11 08:29:38;;;;;;;9.40;2.85;;;;;;;;;;4973397;28;20022;-70
2024/01/11 08:32:04;;;;;;;24.83;8.70;;;;;;;;;;4968905;28;20022;-70
2024/01/11 08:34:29;;;;;;;50.58;19.88;;;;;;;;;;4969863;28;20034;-70
2024/01/11 08:36:54;;;;;;;69.57;24.65;;;;;;;;;;4969775;28;20011;-70
2024/01/11 08:39:21;;;;;;;58.03;22.83;;;;;;;;;;4965884;28;20089;-70
2024/01/11 08:41:46;;;;;;;67.38;24.08;;;;;;;;;;4951982;28;20031;-70
2024/01/11 08:44:11;;;;;;;62.10;21.80;;;;;;;;;;4952170;28;20665;-70
2024/01/11 08:46:37;;;;;;;62.33;21.33;;;;;;;;;;4963525;28;20027;-70
2024/01/11 08:49:03;;;;;;;67.88;23.55;;;;;;;;;;4979605;28;20050;-70
2024/01/11 08:51:29;;;;;;;55.30;20.10;;;;;;;;;;4985926;28;20076;-70
2024/01/11 08:53:54;;;;;;;60.25;22.65;;;;;;;;;;4964863;28;20027;-70
2024/01/11 08:56:19;;;;;;;56.20;21.83;;;;;;;;;;4968666;28;20475;-70
2024/01/11 08:58:44;;;;;;;60.33;21.92;;;;;;;;;;4965612;28;20217;-70
2024/01/11 09:01:10;;;;;;;73.57;24.80;;;;;;;;;;4967674;28;20014;-71
2024/01/11 09:03:35;;;;;;;68.53;25.45;;;;;;;;;;4960164;28;20030;-70
2024/01/11 09:06:01;;;;;;;54.42;21.95;;;;;;;;;;4961238;28;20027;-71
2024/01/11 09:08:26;;;;;;;65.30;22.67;;;;;;;;;;4960285;28;20106;-71
2024/01/11 09:10:52;;;;;;;58.72;21.40;;;;;;;;;;4968499;28;20537;-71
2024/01/11 09:13:18;;;;;;;22.70;8.73;;;;;;;;;;4968248;28;20030;-71
2024/01/11 09:15:43;;;;;;;48.08;17.38;;;;;;;;;;4964742;28;20023;-71
2024/01/11 09:18:08;;;;;;;54.40;20.73;;;;;;;;;;4964461;28;20023;-71
2024/01/11 09:20:33;;;;;;;51.53;19.88;;;;;;;;;;4963511;28;20401;-71
2024/01/11 09:22:59;;;;;;;42.17;12.32;;;;;;;;;;4961319;28;20152;-71
2024/01/11 09:25:24;;;;;;;66.43;25.33;;;;;;;;;;4970350;28;20084;-71
2024/01/11 09:27:49;;;;;;;59.58;19.92;;;;;;;;;;4968338;28;20021;-72
2024/01/11 09:30:15;;;;;;;53.53;20.80;;;;;;;;;;4967816;28;20501;-72
2024/01/11 09:32:40;;;;;;;58.15;24.70;;;;;;;;;;4968320;28;20282;-71
2024/01/11 09:35:05;;;;;;;61.77;25.40;;;;;;;;;;4964288;28;20053;-71
2024/01/11 09:37:31;;;;;;;63.10;23.90;;;;;;;;;;4967412;28;20285;-71
2024/01/11 09:39:56;;;;;;;58.30;23.48;;;;;;;;;;4969750;28;20030;-71
2024/01/11 09:42:22;;;;;;;63.15;26.52;;;;;;;;;;4965537;28;20015;-71
2024/01/11 09:44:47;;;;;;;52.80;22.55;;;;;;;;;;4961853;28;20432;-71
2024/01/11 09:47:14;;;;;;;67.28;25.85;;;;;;;;;;4967028;28;20053;-71
2024/01/11 09:49:40;;;;;;;60.30;23.95;;;;;;;;;;4962890;28;20093;-69
2024/01/11 09:52:08;;;;;;;58.53;26.27;;;;;;;;;;4965916;28;20023;-71
2024/01/11 09:54:34;;;;;;;64.18;25.55;;;;;;;;;;4964029;28;20022;-70
2024/01/11 09:57:00;;;;;;;72.40;24.20;;;;;;;;;;4965180;28;20553;-68
2024/01/11 09:59:26;;;;;;;58.30;24.20;;;;;;;;;;4964200;28;20030;-71
2024/01/11 10:01:51;;;;;;;56.17;25.02;;;;;;;;;;4964880;28;20033;-68
2024/01/11 10:04:16;;;;;;;62.70;26.08;;;;;;;;;;4964677;28;20069;-70
2024/01/11 10:06:42;;;;;;;64.25;26.35;;;;;;;;;;4959971;28;20023;-71
2024/01/11 10:09:08;;;;;;;57.95;25.38;;;;;;;;;;4965476;28;20092;-71
2024/01/11 10:11:34;;;;;;;62.75;25.13;;;;;;;;;;4967481;28;20023;-68
2024/01/11 10:14:00;;;;;;;62.50;26.00;;;;;;;;;;4967906;28;20019;-68
2024/01/11 10:16:27;;;;;;;61.58;24.92;;;;;;;;;;4963521;28;20029;-68
2024/01/11 10:18:55;;;;;;;57.58;24.00;;;;;;;;;;4969159;28;20031;-68
2024/01/11 10:21:21;;;;;;;59.17;21.92;;;;;;;;;;4967982;28;20486;-68
2024/01/11 10:23:46;;;;;;;68.35;25.48;;;;;;;;;;4966245;28;20076;-68
2024/01/11 10:26:11;;;;;;;57.05;25.00;;;;;;;;;;4969674;28;20102;-71
2024/01/11 10:28:37;;;;;;;69.70;27.17;;;;;;;;;;4965265;28;20033;-70
2024/01/11 10:31:03;;;;;;;74.03;26.45;;;;;;;;;;4967624;28;20007;-70
2024/01/11 10:33:28;;;;;;;58.17;27.23;;;;;;;;;;4964016;28;20019;-69
2024/01/11 10:35:53;;;;;;;64.30;28.60;;;;;;;;;;4967882;28;20396;-69
2024/01/11 10:38:21;;;;;;;69.07;27.85;;;;;;;;;;4963678;28;20607;-69
2024/01/11 10:40:46;;;;;;;69.55;30.55;;;;;;;;;;4964241;28;20027;-69
2024/01/11 10:43:12;;;;;;;67.07;27.95;;;;;;;;;;4964669;28;20383;-69
2024/01/11 10:45:41;;;;;;;65.88;27.10;;;;;;;;;;4965260;28;20035;-69
2024/01/11 10:48:07;;;;;;;62.92;27.02;;;;;;;;;;4968249;28;20132;-69
2024/01/11 10:50:39;;;;;;;69.45;28.88;;;;;;;;;;4967362;28;20046;-69
2024/01/11 10:53:24;;;;;;;67.63;28.52;;;;;;;;;;4967652;28;20015;-69
2024/01/11 10:55:50;;;;;;;66.68;28.23;;;;;;;;;;4971458;28;20068;-69
2024/01/11 10:58:15;;;;;;;68.63;29.05;;;;;;;;;;4966362;28;20452;-69
2024/01/11 11:00:40;;;;;;;74.82;29.52;;;;;;;;;;4968098;28;20489;-69
2024/01/11 11:03:06;;;;;;;73.93;29.55;;;;;;;;;;4970216;28;20018;-69
2024/01/11 11:05:32;;;;;;;72.63;30.73;;;;;;;;;;4963500;28;20084;-69
2024/01/11 11:07:57;;;;;;;62.88;28.08;;;;;;;;;;4963680;28;20019;-67
2024/01/11 11:10:23;;;;;;;62.63;28.38;;;;;;;;;;4967019;28;20104;-67
2024/01/11 11:12:49;;;;;;;66.28;27.98;;;;;;;;;;4962933;28;20048;-66
2024/01/11 11:15:14;;;;;;;62.87;28.07;;;;;;;;;;4967762;28;20019;-69
2024/01/11 11:17:43;;;;;;;60.85;29.42;;;;;;;;;;4967738;28;20749;-69
2024/01/11 11:20:11;;;;;;;68.32;28.35;;;;;;;;;;4963516;28;20019;-69
2024/01/11 11:22:37;;;;;;;70.57;28.25;;;;;;;;;;4967662;28;20029;-69
2024/01/11 11:25:23;;;;;;;83.70;31.88;;;;;;;;;;4967139;28;20030;-69
2024/01/11 11:27:48;;;;;;;75.63;29.73;;;;;;;;;;4969610;28;20489;-69
2024/01/11 11:30:13;;;;;;;82.03;34.65;;;;;;;;;;4967522;28;20066;-69
2024/01/11 11:32:42;;;;;;;74.10;31.83;;;;;;;;;;4969924;28;20019;-69
2024/01/11 11:35:08;;;;;;;84.72;32.78;;;;;;;;;;4963023;28;20259;-67
2024/01/11 11:37:35;;;;;;;76.18;33.72;;;;;;;;;;4962645;28;20015;-66
2024/01/11 11:40:01;;;;;;;75.72;31.38;;;;;;;;;;4963395;28;20015;-67
2024/01/11 11:42:28;;;;;;;84.50;34.45;;;;;;;;;;4974395;28;20025;-69
2024/01/11 11:44:53;;;;;;;81.95;32.55;;;;;;;;;;4970247;28;20026;-69
2024/01/11 11:47:22;;;;;;;89.88;37.90;;;;;;;;;;4969426;28;20018;-69
2024/01/11 11:49:58;;;;;;;76.75;31.13;;;;;;;;;;4971555;28;20038;-69
2024/01/11 11:52:23;;;;;;;76.22;32.50;;;;;;;;;;4958511;28;20132;-69
2024/01/11 11:54:49;;;;;;;72.50;32.00;;;;;;;;;;4966384;28;20114;-69
2024/01/11 11:57:16;;;;;;;68.25;28.67;;;;;;;;;;4962828;28;20161;-69
2024/01/11 11:59:42;;;;;;;66.95;29.98;;;;;;;;;;4964662;28;20023;-69
2024/01/11 12:02:11;;;;;;;82.03;33.13;;;;;;;;;;4961113;28;20027;-69
2024/01/11 12:04:38;;;;;;;76.53;31.42;;;;;;;;;;4968324;28;20026;-69
2024/01/11 12:07:04;;;;;;;75.15;30.40;;;;;;;;;;4972523;28;20039;-69
2024/01/11 12:09:29;;;;;;;75.97;30.38;;;;;;;;;;4966210;28;20360;-69
2024/01/11 12:11:54;;;;;;;74.60;29.95;;;;;;;;;;4962723;28;20027;-69
2024/01/11 12:14:20;;;;;;;78.45;30.98;;;;;;;;;;4966242;28;20507;-69
2024/01/11 12:16:45;;;;;;;75.70;30.30;;;;;;;;;;4964513;28;20110;-69
2024/01/11 12:19:10;;;;;;;76.60;29.85;;;;;;;;;;4967302;28;20457;-69
2024/01/11 12:21:35;;;;;;;75.90;28.33;;;;;;;;;;4965840;28;20023;-69
2024/01/11 12:24:00;;;;;;;72.97;30.27;;;;;;;;;;4969945;28;20026;-69
2024/01/11 12:26:26;;;;;;;78.07;33.60;;;;;;;;;;4969444;28;20076;-69
2024/01/11 12:28:51;;;;;;;72.97;28.35;;;;;;;;;;4962369;28;20023;-69
2024/01/11 12:31:17;;;;;;;67.38;27.48;;;;;;;;;;4962393;28;20054;-69
2024/01/11 12:33:43;;;;;;;64.88;26.42;;;;;;;;;;4965989;28;20578;-69
2024/01/11 12:36:08;;;;;;;78.90;26.17;;;;;;;;;;4963218;28;20027;-70
2024/01/11 12:38:34;;;;;;;73.63;29.23;;;;;;;;;;4970904;28;20492;-69
2024/01/11 12:40:59;;;;;;;67.10;27.67;;;;;;;;;;4972589;28;20018;-69
2024/01/11 12:43:25;;;;;;;65.95;26.70;;;;;;;;;;4970924;28;20455;-69
2024/01/11 12:45:50;;;;;;;68.38;26.52;;;;;;;;;;4962018;28;20050;-69
2024/01/11 12:48:17;;;;;;;73.78;27.85;;;;;;;;;;4976394;28;20438;-69
2024/01/11 12:50:42;;;;;;;71.45;29.42;;;;;;;;;;4972387;28;20478;-69
2024/01/11 12:53:08;;;;;;;73.38;24.25;;;;;;;;;;4973062;28;20061;-69
2024/01/11 12:55:36;;;;;;;64.35;26.10;;;;;;;;;;4972599;28;20018;-69
2024/01/11 12:58:05;;;;;;;65.90;28.05;;;;;;;;;;4970202;28;20023;-69
2024/01/11 13:00:31;;;;;;;60.17;25.85;;;;;;;;;;4962138;28;20064;-69
2024/01/11 13:02:56;;;;;;;62.58;26.92;;;;;;;;;;4967654;28;20110;-69
2024/01/11 13:05:21;;;;;;;71.68;30.33;;;;;;;;;;4973952;28;20031;-69
2024/01/11 13:07:46;;;;;;;73.70;27.67;;;;;;;;;;4969056;28;20188;-69
2024/01/11 13:10:12;;;;;;;70.43;25.38;;;;;;;;;;4968470;28;20641;-69
2024/01/11 13:12:37;;;;;;;64.18;26.27;;;;;;;;;;4972104;28;20106;-69
2024/01/11 13:15:02;;;;;;;75.72;27.50;;;;;;;;;;4966185;28;20097;-69
2024/01/11 13:17:27;;;;;;;72.25;26.83;;;;;;;;;;4968919;28;20363;-69
2024/01/11 13:19:52;;;;;;;73.35;29.10;;;;;;;;;;4962319;28;20035;-69
2024/01/11 13:22:18;;;;;;;73.95;30.77;;;;;;;;;;4967556;28;20037;-69
2024/01/11 13:24:43;;;;;;;83.67;31.67;;;;;;;;;;4970042;28;20046;-69
2024/01/11 13:27:08;;;;;;;77.35;31.02;;;;;;;;;;4965336;28;20270;-69
2024/01/11 13:29:33;;;;;;;70.83;29.67;;;;;;;;;;4965101;28;20015;-69
2024/01/11 13:31:58;;;;;;;72.67;29.83;;;;;;;;;;4965152;28;20476;-69
2024/01/11 13:34:23;;;;;;;81.33;29.50;;;;;;;;;;4965382;28;20254;-70
2024/01/11 13:36:49;;;;;;;81.85;31.05;;;;;;;;;;4964081;28;20757;-69
2024/01/11 13:39:14;;;;;;;77.10;30.77;;;;;;;;;;4977090;28;20378;-69
2024/01/11 13:41:40;;;;;;;84.57;31.93;;;;;;;;;;4973170;28;20027;-69
2024/01/11 13:44:06;;;;;;;87.30;31.17;;;;;;;;;;4966371;28;20365;-69
2024/01/11 13:46:31;;;;;;;67.65;28.25;;;;;;;;;;4964687;28;20098;-69
2024/01/11 13:48:56;;;;;;;80.35;30.85;;;;;;;;;;4961983;28;20069;-69
2024/01/11 13:51:21;;;;;;;78.90;28.90;;;;;;;;;;4964818;28;20031;-69
2024/01/11 13:53:46;;;;;;;72.00;28.15;;;;;;;;;;4961108;28;20087;-69
2024/01/11 13:56:12;;;;;;;82.35;27.35;;;;;;;;;;4969905;28;20394;-69
2024/01/11 13:58:37;;;;;;;69.82;29.55;;;;;;;;;;4967767;28;20055;-70
2024/01/11 14:01:03;;;;;;;84.22;28.38;;;;;;;;;;4962230;28;20026;-69
2024/01/11 14:03:28;;;;;;;64.60;27.67;;;;;;;;;;4967570;28;20026;-69
2024/01/11 14:05:54;;;;;;;83.57;33.00;;;;;;;;;;4961592;28;20478;-69
2024/01/11 14:08:19;;;;;;;74.70;30.33;;;;;;;;;;4965881;28;20459;-69
2024/01/11 14:10:44;;;;;;;80.55;31.55;;;;;;;;;;4967525;28;20014;-69